sensor_id;sensor_type;location;lat;lon;timestamp;P1;durP1;ratioP1;P2;durP2;ratioP2
64033;SDS011;50280;49.864;8.638;2022-11-15T00:02:29;8.93;;;3.03;;
64033;SDS011;50280;49.864;8.638;2022-11-15T00:05:03;5.63;;;2.80;;
64033;SDS011;50280;49.864;8.638;2022-11-15T00:07:36;4.95;;;3.00;;
64033;SDS011;50280;49.864;8.638;2022-11-15T00:10:08;3.78;;;2.80;;
64033;SDS011;50280;49.864;8.638;2022-11-15T00:12:41;6.60;;;3.35;;
64033;SDS011;50280;49.864;8.638;2022-11-15T00:15:13;4.95;;;2.92;;
64033;SDS011;50280;49.864;8.638;2022-11-15T00:17:48;7.47;;;3.10;;
64033;SDS011;50280;49.864;8.638;2022-11-15T00:20:22;5.60;;;3.00;;
64033;SDS011;50280;49.864;8.638;2022-11-15T00:22:55;5.43;;;2.90;;
64033;SDS011;50280;49.864;8.638;2022-11-15T00:25:27;6.65;;;2.95;;
64033;SDS011;50280;49.864;8.638;2022-11-15T00:28:00;5.40;;;3.10;;
64033;SDS011;50280;49.864;8.638;2022-11-15T00:30:34;6.15;;;3.33;;
64033;SDS011;50280;49.864;8.638;2022-11-15T00:33:06;6.38;;;3.00;;
64033;SDS011;50280;49.864;8.638;2022-11-15T00:35:42;4.22;;;2.67;;
64033;SDS011;50280;49.864;8.638;2022-11-15T00:38:14;4.65;;;2.97;;
64033;SDS011;50280;49.864;8.638;2022-11-15T00:40:47;4.90;;;2.95;;
64033;SDS011;50280;49.864;8.638;2022-11-15T00:43:19;5.22;;;3.10;;
64033;SDS011;50280;49.864;8.638;2022-11-15T00:45:51;6.32;;;3.15;;
64033;SDS011;50280;49.864;8.638;2022-11-15T00:48:24;4.70;;;3.08;;
64033;SDS011;50280;49.864;8.638;2022-11-15T00:50:58;4.65;;;3.15;;
64033;SDS011;50280;49.864;8.638;2022-11-15T00:53:30;5.05;;;3.40;;
64033;SDS011;50280;49.864;8.638;2022-11-15T00:56:03;5.80;;;3.22;;
64033;SDS011;50280;49.864;8.638;2022-11-15T00:58:36;6.72;;;3.30;;
64033;SDS011;50280;49.864;8.638;2022-11-15T01:01:08;5.57;;;3.13;;
64033;SDS011;50280;49.864;8.638;2022-11-15T01:03:44;5.55;;;2.97;;
64033;SDS011;50280;49.864;8.638;2022-11-15T01:06:18;5.45;;;2.90;;
64033;SDS011;50280;49.864;8.638;2022-11-15T01:08:50;6.20;;;2.83;;
64033;SDS011;50280;49.864;8.638;2022-11-15T01:11:23;4.60;;;3.00;;
64033;SDS011;50280;49.864;8.638;2022-11-15T01:13:55;4.22;;;2.88;;
64033;SDS011;50280;49.864;8.638;2022-11-15T01:16:27;5.75;;;2.92;;
64033;SDS011;50280;49.864;8.638;2022-11-15T01:18:59;7.55;;;3.20;;
64033;SDS011;50280;49.864;8.638;2022-11-15T01:21:33;5.00;;;3.20;;
64033;SDS011;50280;49.864;8.638;2022-11-15T01:24:06;4.53;;;2.80;;
64033;SDS011;50280;49.864;8.638;2022-11-15T01:26:44;6.20;;;3.05;;
64033;SDS011;50280;49.864;8.638;2022-11-15T01:29:16;4.22;;;3.10;;
64033;SDS011;50280;49.864;8.638;2022-11-15T01:31:49;4.75;;;3.00;;
64033;SDS011;50280;49.864;8.638;2022-11-15T01:34:21;5.82;;;3.00;;
64033;SDS011;50280;49.864;8.638;2022-11-15T01:36:55;4.80;;;2.97;;
64033;SDS011;50280;49.864;8.638;2022-11-15T01:39:27;6.72;;;3.10;;
64033;SDS011;50280;49.864;8.638;2022-11-15T01:42:00;5.53;;;3.42;;
64033;SDS011;50280;49.864;8.638;2022-11-15T01:44:40;4.30;;;2.80;;
64033;SDS011;50280;49.864;8.638;2022-11-15T01:47:19;5.50;;;3.10;;
64033;SDS011;50280;49.864;8.638;2022-11-15T01:49:58;6.22;;;3.35;;
64033;SDS011;50280;49.864;8.638;2022-11-15T01:52:37;4.88;;;2.90;;
64033;SDS011;50280;49.864;8.638;2022-11-15T01:55:13;4.43;;;2.97;;
64033;SDS011;50280;49.864;8.638;2022-11-15T01:57:54;5.97;;;3.05;;
64033;SDS011;50280;49.864;8.638;2022-11-15T02:00:33;4.25;;;2.63;;
64033;SDS011;50280;49.864;8.638;2022-11-15T02:03:06;4.22;;;2.83;;
64033;SDS011;50280;49.864;8.638;2022-11-15T02:05:39;4.88;;;3.10;;
64033;SDS011;50280;49.864;8.638;2022-11-15T02:08:15;4.80;;;2.95;;
64033;SDS011;50280;49.864;8.638;2022-11-15T02:10:47;5.45;;;2.80;;
64033;SDS011;50280;49.864;8.638;2022-11-15T02:13:19;5.38;;;2.60;;
64033;SDS011;50280;49.864;8.638;2022-11-15T02:15:55;4.28;;;2.95;;
64033;SDS011;50280;49.864;8.638;2022-11-15T02:18:49;4.32;;;2.72;;
64033;SDS011;50280;49.864;8.638;2022-11-15T02:21:32;5.85;;;2.90;;
64033;SDS011;50280;49.864;8.638;2022-11-15T02:24:35;4.68;;;2.85;;
64033;SDS011;50280;49.864;8.638;2022-11-15T02:27:51;4.88;;;2.72;;
64033;SDS011;50280;49.864;8.638;2022-11-15T02:31:00;4.50;;;2.90;;
64033;SDS011;50280;49.864;8.638;2022-11-15T02:33:49;6.20;;;3.22;;
64033;SDS011;50280;49.864;8.638;2022-11-15T02:36:40;5.47;;;2.70;;
64033;SDS011;50280;49.864;8.638;2022-11-15T02:39:34;4.72;;;2.70;;
64033;SDS011;50280;49.864;8.638;2022-11-15T02:42:21;4.75;;;2.55;;
64033;SDS011;50280;49.864;8.638;2022-11-15T02:45:03;6.28;;;2.85;;
64033;SDS011;50280;49.864;8.638;2022-11-15T02:47:45;4.38;;;2.65;;
64033;SDS011;50280;49.864;8.638;2022-11-15T02:50:24;4.65;;;3.03;;
64033;SDS011;50280;49.864;8.638;2022-11-15T02:53:01;6.85;;;3.50;;
64033;SDS011;50280;49.864;8.638;2022-11-15T02:55:35;5.13;;;3.13;;
64033;SDS011;50280;49.864;8.638;2022-11-15T02:58:18;6.30;;;3.65;;
64033;SDS011;50280;49.864;8.638;2022-11-15T03:01:27;4.20;;;2.85;;
64033;SDS011;50280;49.864;8.638;2022-11-15T03:04:26;7.05;;;3.22;;
64033;SDS011;50280;49.864;8.638;2022-11-15T03:07:15;6.63;;;3.38;;
64033;SDS011;50280;49.864;8.638;2022-11-15T03:10:02;6.20;;;3.63;;
64033;SDS011;50280;49.864;8.638;2022-11-15T03:12:45;6.28;;;3.22;;
64033;SDS011;50280;49.864;8.638;2022-11-15T03:15:29;6.93;;;3.17;;
64033;SDS011;50280;49.864;8.638;2022-11-15T03:18:12;3.95;;;2.72;;
64033;SDS011;50280;49.864;8.638;2022-11-15T03:20:58;5.72;;;2.95;;
64033;SDS011;50280;49.864;8.638;2022-11-15T03:23:39;5.85;;;3.22;;
64033;SDS011;50280;49.864;8.638;2022-11-15T03:26:15;5.38;;;3.25;;
64033;SDS011;50280;49.864;8.638;2022-11-15T03:28:55;5.43;;;3.03;;
64033;SDS011;50280;49.864;8.638;2022-11-15T03:31:36;4.60;;;2.92;;
64033;SDS011;50280;49.864;8.638;2022-11-15T03:34:19;4.60;;;2.72;;
64033;SDS011;50280;49.864;8.638;2022-11-15T03:37:04;5.78;;;3.40;;
64033;SDS011;50280;49.864;8.638;2022-11-15T03:39:40;4.75;;;3.00;;
64033;SDS011;50280;49.864;8.638;2022-11-15T03:42:17;6.13;;;3.35;;
64033;SDS011;50280;49.864;8.638;2022-11-15T03:45:02;5.88;;;3.30;;
64033;SDS011;50280;49.864;8.638;2022-11-15T03:47:49;4.57;;;3.33;;
64033;SDS011;50280;49.864;8.638;2022-11-15T03:50:31;4.57;;;3.38;;
64033;SDS011;50280;49.864;8.638;2022-11-15T03:53:06;5.53;;;3.13;;
64033;SDS011;50280;49.864;8.638;2022-11-15T03:55:39;5.88;;;3.40;;
64033;SDS011;50280;49.864;8.638;2022-11-15T03:58:12;6.88;;;3.60;;
64033;SDS011;50280;49.864;8.638;2022-11-15T04:00:44;6.40;;;3.40;;
64033;SDS011;50280;49.864;8.638;2022-11-15T04:03:17;7.17;;;3.37;;
64033;SDS011;50280;49.864;8.638;2022-11-15T04:05:49;4.85;;;3.22;;
64033;SDS011;50280;49.864;8.638;2022-11-15T04:08:23;6.28;;;3.55;;
64033;SDS011;50280;49.864;8.638;2022-11-15T04:10:55;4.35;;;2.78;;
64033;SDS011;50280;49.864;8.638;2022-11-15T04:13:27;6.47;;;3.75;;
64033;SDS011;50280;49.864;8.638;2022-11-15T04:16:00;4.93;;;3.53;;
64033;SDS011;50280;49.864;8.638;2022-11-15T04:18:32;5.10;;;3.70;;
64033;SDS011;50280;49.864;8.638;2022-11-15T04:21:05;6.18;;;3.55;;
64033;SDS011;50280;49.864;8.638;2022-11-15T04:23:40;5.85;;;3.90;;
64033;SDS011;50280;49.864;8.638;2022-11-15T04:26:14;6.00;;;3.70;;
64033;SDS011;50280;49.864;8.638;2022-11-15T04:28:50;5.55;;;3.75;;
64033;SDS011;50280;49.864;8.638;2022-11-15T04:31:23;5.18;;;3.63;;
64033;SDS011;50280;49.864;8.638;2022-11-15T04:33:55;5.72;;;3.45;;
64033;SDS011;50280;49.864;8.638;2022-11-15T04:36:28;5.43;;;3.50;;
64033;SDS011;50280;49.864;8.638;2022-11-15T04:39:02;5.80;;;3.25;;
64033;SDS011;50280;49.864;8.638;2022-11-15T04:41:35;5.07;;;3.30;;
64033;SDS011;50280;49.864;8.638;2022-11-15T04:44:07;6.47;;;3.50;;
64033;SDS011;50280;49.864;8.638;2022-11-15T04:46:39;6.00;;;3.70;;
64033;SDS011;50280;49.864;8.638;2022-11-15T04:49:12;6.35;;;4.28;;
64033;SDS011;50280;49.864;8.638;2022-11-15T04:51:44;5.22;;;3.63;;
64033;SDS011;50280;49.864;8.638;2022-11-15T04:54:18;6.35;;;3.92;;
64033;SDS011;50280;49.864;8.638;2022-11-15T04:56:51;7.15;;;3.78;;
64033;SDS011;50280;49.864;8.638;2022-11-15T04:59:23;7.97;;;4.47;;
64033;SDS011;50280;49.864;8.638;2022-11-15T05:01:55;6.90;;;4.25;;
64033;SDS011;50280;49.864;8.638;2022-11-15T05:04:28;7.60;;;4.18;;
64033;SDS011;50280;49.864;8.638;2022-11-15T05:07:00;7.60;;;4.18;;
64033;SDS011;50280;49.864;8.638;2022-11-15T05:09:34;7.50;;;4.32;;
64033;SDS011;50280;49.864;8.638;2022-11-15T05:12:06;8.40;;;3.97;;
64033;SDS011;50280;49.864;8.638;2022-11-15T05:14:39;6.45;;;4.30;;
64033;SDS011;50280;49.864;8.638;2022-11-15T05:17:11;6.68;;;4.10;;
64033;SDS011;50280;49.864;8.638;2022-11-15T05:19:43;6.55;;;4.30;;
64033;SDS011;50280;49.864;8.638;2022-11-15T05:22:16;8.93;;;4.40;;
64033;SDS011;50280;49.864;8.638;2022-11-15T05:24:49;6.10;;;4.22;;
64033;SDS011;50280;49.864;8.638;2022-11-15T05:27:22;6.43;;;3.92;;
64033;SDS011;50280;49.864;8.638;2022-11-15T05:29:54;5.63;;;3.88;;
64033;SDS011;50280;49.864;8.638;2022-11-15T05:32:27;6.88;;;4.00;;
64033;SDS011;50280;49.864;8.638;2022-11-15T05:35:00;8.35;;;5.05;;
64033;SDS011;50280;49.864;8.638;2022-11-15T05:37:32;9.75;;;4.47;;
64033;SDS011;50280;49.864;8.638;2022-11-15T05:40:07;7.80;;;4.35;;
64033;SDS011;50280;49.864;8.638;2022-11-15T05:42:40;7.68;;;4.60;;
64033;SDS011;50280;49.864;8.638;2022-11-15T05:45:13;7.22;;;4.20;;
64033;SDS011;50280;49.864;8.638;2022-11-15T05:47:46;6.85;;;4.30;;
64033;SDS011;50280;49.864;8.638;2022-11-15T05:50:21;6.20;;;3.80;;
64033;SDS011;50280;49.864;8.638;2022-11-15T05:52:55;10.05;;;4.30;;
64033;SDS011;50280;49.864;8.638;2022-11-15T05:55:29;7.53;;;4.10;;
64033;SDS011;50280;49.864;8.638;2022-11-15T05:58:03;7.35;;;4.38;;
64033;SDS011;50280;49.864;8.638;2022-11-15T06:00:35;6.22;;;4.00;;
64033;SDS011;50280;49.864;8.638;2022-11-15T06:03:08;7.15;;;4.32;;
64033;SDS011;50280;49.864;8.638;2022-11-15T06:05:41;7.40;;;4.63;;
64033;SDS011;50280;49.864;8.638;2022-11-15T06:08:13;6.78;;;4.15;;
64033;SDS011;50280;49.864;8.638;2022-11-15T06:10:47;6.13;;;4.00;;
64033;SDS011;50280;49.864;8.638;2022-11-15T06:13:19;7.78;;;4.35;;
64033;SDS011;50280;49.864;8.638;2022-11-15T06:15:54;7.88;;;4.07;;
64033;SDS011;50280;49.864;8.638;2022-11-15T06:18:27;6.15;;;3.95;;
64033;SDS011;50280;49.864;8.638;2022-11-15T06:21:03;6.80;;;4.15;;
64033;SDS011;50280;49.864;8.638;2022-11-15T06:23:36;7.05;;;3.88;;
64033;SDS011;50280;49.864;8.638;2022-11-15T06:26:10;6.68;;;4.45;;
64033;SDS011;50280;49.864;8.638;2022-11-15T06:28:42;8.30;;;4.50;;
64033;SDS011;50280;49.864;8.638;2022-11-15T06:31:15;7.28;;;4.03;;
64033;SDS011;50280;49.864;8.638;2022-11-15T06:33:47;9.82;;;4.28;;
64033;SDS011;50280;49.864;8.638;2022-11-15T06:36:20;8.07;;;4.13;;
64033;SDS011;50280;49.864;8.638;2022-11-15T06:38:52;8.93;;;5.20;;
64033;SDS011;50280;49.864;8.638;2022-11-15T06:41:26;8.02;;;4.90;;
64033;SDS011;50280;49.864;8.638;2022-11-15T06:43:58;6.95;;;4.68;;
64033;SDS011;50280;49.864;8.638;2022-11-15T06:46:31;6.35;;;4.13;;
64033;SDS011;50280;49.864;8.638;2022-11-15T06:49:03;6.15;;;4.10;;
64033;SDS011;50280;49.864;8.638;2022-11-15T06:51:35;7.93;;;4.10;;
64033;SDS011;50280;49.864;8.638;2022-11-15T06:54:08;8.70;;;6.13;;
64033;SDS011;50280;49.864;8.638;2022-11-15T06:56:41;6.95;;;3.90;;
64033;SDS011;50280;49.864;8.638;2022-11-15T06:59:14;6.35;;;4.53;;
64033;SDS011;50280;49.864;8.638;2022-11-15T07:01:46;7.53;;;4.68;;
64033;SDS011;50280;49.864;8.638;2022-11-15T07:04:18;15.23;;;8.52;;
64033;SDS011;50280;49.864;8.638;2022-11-15T07:06:51;8.25;;;4.28;;
64033;SDS011;50280;49.864;8.638;2022-11-15T07:09:23;7.20;;;4.28;;
64033;SDS011;50280;49.864;8.638;2022-11-15T07:11:57;7.57;;;4.00;;
64033;SDS011;50280;49.864;8.638;2022-11-15T07:14:30;6.00;;;3.92;;
64033;SDS011;50280;49.864;8.638;2022-11-15T07:17:03;8.20;;;4.22;;
64033;SDS011;50280;49.864;8.638;2022-11-15T07:19:35;6.88;;;4.63;;
64033;SDS011;50280;49.864;8.638;2022-11-15T07:22:08;7.78;;;5.03;;
64033;SDS011;50280;49.864;8.638;2022-11-15T07:24:40;6.30;;;4.55;;
64033;SDS011;50280;49.864;8.638;2022-11-15T07:27:14;7.97;;;4.30;;
64033;SDS011;50280;49.864;8.638;2022-11-15T07:29:46;5.75;;;3.95;;
64033;SDS011;50280;49.864;8.638;2022-11-15T07:32:19;7.07;;;4.30;;
64033;SDS011;50280;49.864;8.638;2022-11-15T07:34:51;6.55;;;3.90;;
64033;SDS011;50280;49.864;8.638;2022-11-15T07:37:23;6.10;;;3.90;;
64033;SDS011;50280;49.864;8.638;2022-11-15T07:39:56;7.95;;;4.35;;
64033;SDS011;50280;49.864;8.638;2022-11-15T07:42:31;5.38;;;3.92;;
64033;SDS011;50280;49.864;8.638;2022-11-15T07:45:04;7.55;;;3.97;;
64033;SDS011;50280;49.864;8.638;2022-11-15T07:47:38;7.72;;;4.35;;
64033;SDS011;50280;49.864;8.638;2022-11-15T07:50:10;7.32;;;4.40;;
64033;SDS011;50280;49.864;8.638;2022-11-15T07:52:43;9.10;;;5.05;;
64033;SDS011;50280;49.864;8.638;2022-11-15T07:55:17;7.03;;;4.03;;
64033;SDS011;50280;49.864;8.638;2022-11-15T07:57:50;7.53;;;4.38;;
64033;SDS011;50280;49.864;8.638;2022-11-15T08:00:23;8.18;;;4.50;;
64033;SDS011;50280;49.864;8.638;2022-11-15T08:03:00;7.30;;;4.10;;
64033;SDS011;50280;49.864;8.638;2022-11-15T08:05:36;9.13;;;4.22;;
64033;SDS011;50280;49.864;8.638;2022-11-15T08:08:12;7.82;;;4.22;;
64033;SDS011;50280;49.864;8.638;2022-11-15T08:10:44;5.45;;;3.88;;
64033;SDS011;50280;49.864;8.638;2022-11-15T08:13:18;7.20;;;4.10;;
64033;SDS011;50280;49.864;8.638;2022-11-15T08:15:51;5.85;;;3.95;;
64033;SDS011;50280;49.864;8.638;2022-11-15T08:18:23;8.05;;;4.10;;
64033;SDS011;50280;49.864;8.638;2022-11-15T08:20:58;8.93;;;4.90;;
64033;SDS011;50280;49.864;8.638;2022-11-15T08:23:31;8.23;;;5.03;;
64033;SDS011;50280;49.864;8.638;2022-11-15T08:26:05;8.43;;;4.80;;
64033;SDS011;50280;49.864;8.638;2022-11-15T08:28:38;6.25;;;4.40;;
64033;SDS011;50280;49.864;8.638;2022-11-15T08:31:13;8.38;;;4.65;;
64033;SDS011;50280;49.864;8.638;2022-11-15T08:33:47;7.65;;;4.60;;
64033;SDS011;50280;49.864;8.638;2022-11-15T08:36:19;7.38;;;4.50;;
64033;SDS011;50280;49.864;8.638;2022-11-15T08:38:52;10.88;;;4.75;;
64033;SDS011;50280;49.864;8.638;2022-11-15T08:41:25;6.32;;;4.30;;
64033;SDS011;50280;49.864;8.638;2022-11-15T08:44:05;7.63;;;4.43;;
64033;SDS011;50280;49.864;8.638;2022-11-15T08:46:37;7.35;;;4.28;;
64033;SDS011;50280;49.864;8.638;2022-11-15T08:49:10;8.40;;;4.72;;
64033;SDS011;50280;49.864;8.638;2022-11-15T08:51:42;6.55;;;4.10;;
64033;SDS011;50280;49.864;8.638;2022-11-15T08:54:14;6.85;;;4.07;;
64033;SDS011;50280;49.864;8.638;2022-11-15T08:56:47;8.05;;;4.15;;
64033;SDS011;50280;49.864;8.638;2022-11-15T08:59:21;6.25;;;3.80;;
64033;SDS011;50280;49.864;8.638;2022-11-15T09:01:54;6.05;;;3.95;;
64033;SDS011;50280;49.864;8.638;2022-11-15T09:04:26;6.88;;;4.05;;
64033;SDS011;50280;49.864;8.638;2022-11-15T09:06:59;6.60;;;4.22;;
64033;SDS011;50280;49.864;8.638;2022-11-15T09:09:31;7.60;;;4.55;;
64033;SDS011;50280;49.864;8.638;2022-11-15T09:12:04;7.45;;;4.00;;
64033;SDS011;50280;49.864;8.638;2022-11-15T09:14:39;7.28;;;3.95;;
64033;SDS011;50280;49.864;8.638;2022-11-15T09:17:12;6.10;;;3.95;;
64033;SDS011;50280;49.864;8.638;2022-11-15T09:19:44;5.82;;;3.70;;
64033;SDS011;50280;49.864;8.638;2022-11-15T09:22:16;5.53;;;3.67;;
64033;SDS011;50280;49.864;8.638;2022-11-15T09:24:49;6.82;;;4.00;;
64033;SDS011;50280;49.864;8.638;2022-11-15T09:27:22;5.07;;;3.63;;
64033;SDS011;50280;49.864;8.638;2022-11-15T09:29:56;6.88;;;4.15;;
64033;SDS011;50280;49.864;8.638;2022-11-15T09:32:28;5.85;;;4.20;;
64033;SDS011;50280;49.864;8.638;2022-11-15T09:35:01;6.75;;;3.88;;
64033;SDS011;50280;49.864;8.638;2022-11-15T09:37:34;7.20;;;4.03;;
64033;SDS011;50280;49.864;8.638;2022-11-15T09:40:08;6.50;;;4.03;;
64033;SDS011;50280;49.864;8.638;2022-11-15T09:42:49;6.07;;;4.00;;
64033;SDS011;50280;49.864;8.638;2022-11-15T09:45:47;8.50;;;5.03;;
64033;SDS011;50280;49.864;8.638;2022-11-15T09:48:48;7.45;;;3.97;;
64033;SDS011;50280;49.864;8.638;2022-11-15T09:51:26;5.50;;;4.00;;
64033;SDS011;50280;49.864;8.638;2022-11-15T09:54:07;6.10;;;4.10;;
64033;SDS011;50280;49.864;8.638;2022-11-15T09:56:53;7.83;;;4.43;;
64033;SDS011;50280;49.864;8.638;2022-11-15T09:59:39;7.40;;;4.35;;
64033;SDS011;50280;49.864;8.638;2022-11-15T10:02:36;8.68;;;4.13;;
64033;SDS011;50280;49.864;8.638;2022-11-15T10:05:37;10.63;;;4.70;;
64033;SDS011;50280;49.864;8.638;2022-11-15T10:08:22;8.88;;;4.70;;
64033;SDS011;50280;49.864;8.638;2022-11-15T10:11:23;6.45;;;4.10;;
64033;SDS011;50280;49.864;8.638;2022-11-15T10:14:01;7.45;;;4.10;;
64033;SDS011;50280;49.864;8.638;2022-11-15T10:20:40;7.22;;;3.67;;
64033;SDS011;50280;49.864;8.638;2022-11-15T10:23:23;6.05;;;3.90;;
64033;SDS011;50280;49.864;8.638;2022-11-15T10:25:57;5.90;;;3.83;;
64033;SDS011;50280;49.864;8.638;2022-11-15T10:28:32;8.10;;;4.68;;
64033;SDS011;50280;49.864;8.638;2022-11-15T10:31:11;6.30;;;3.80;;
64033;SDS011;50280;49.864;8.638;2022-11-15T10:33:58;5.97;;;3.72;;
64033;SDS011;50280;49.864;8.638;2022-11-15T10:36:46;5.85;;;3.90;;
64033;SDS011;50280;49.864;8.638;2022-11-15T10:39:27;6.47;;;3.92;;
64033;SDS011;50280;49.864;8.638;2022-11-15T10:42:14;6.40;;;3.90;;
64033;SDS011;50280;49.864;8.638;2022-11-15T10:44:57;9.48;;;4.20;;
64033;SDS011;50280;49.864;8.638;2022-11-15T10:47:30;7.40;;;4.22;;
64033;SDS011;50280;49.864;8.638;2022-11-15T10:50:06;7.68;;;3.90;;
64033;SDS011;50280;49.864;8.638;2022-11-15T10:53:02;7.40;;;4.00;;
64033;SDS011;50280;49.864;8.638;2022-11-15T10:55:35;7.05;;;4.05;;
64033;SDS011;50280;49.864;8.638;2022-11-15T10:58:20;8.43;;;4.13;;
64033;SDS011;50280;49.864;8.638;2022-11-15T11:01:09;7.57;;;4.30;;
64033;SDS011;50280;49.864;8.638;2022-11-15T11:03:57;6.63;;;4.10;;
64033;SDS011;50280;49.864;8.638;2022-11-15T11:06:45;7.60;;;4.05;;
64033;SDS011;50280;49.864;8.638;2022-11-15T11:09:22;5.35;;;3.90;;
64033;SDS011;50280;49.864;8.638;2022-11-15T11:12:09;8.10;;;3.90;;
64033;SDS011;50280;49.864;8.638;2022-11-15T11:14:43;6.55;;;3.72;;
64033;SDS011;50280;49.864;8.638;2022-11-15T11:17:16;7.32;;;3.90;;
64033;SDS011;50280;49.864;8.638;2022-11-15T11:20:10;8.38;;;4.13;;
64033;SDS011;50280;49.864;8.638;2022-11-15T11:23:02;8.15;;;4.20;;
64033;SDS011;50280;49.864;8.638;2022-11-15T11:25:59;5.28;;;3.70;;
64033;SDS011;50280;49.864;8.638;2022-11-15T11:28:54;7.35;;;4.20;;
64033;SDS011;50280;49.864;8.638;2022-11-15T11:31:55;6.05;;;3.60;;
64033;SDS011;50280;49.864;8.638;2022-11-15T11:34:50;6.82;;;3.30;;
64033;SDS011;50280;49.864;8.638;2022-11-15T11:37:43;4.80;;;3.20;;
64033;SDS011;50280;49.864;8.638;2022-11-15T11:40:28;5.50;;;3.15;;
64033;SDS011;50280;49.864;8.638;2022-11-15T11:43:11;4.50;;;3.30;;
64033;SDS011;50280;49.864;8.638;2022-11-15T11:46:22;6.07;;;3.20;;
64033;SDS011;50280;49.864;8.638;2022-11-15T11:49:25;4.82;;;3.22;;
64033;SDS011;50280;49.864;8.638;2022-11-15T11:52:11;4.30;;;2.60;;
64033;SDS011;50280;49.864;8.638;2022-11-15T11:54:59;4.70;;;2.80;;
64033;SDS011;50280;49.864;8.638;2022-11-15T11:57:47;6.55;;;2.42;;
64033;SDS011;50280;49.864;8.638;2022-11-15T12:00:38;6.20;;;2.10;;
64033;SDS011;50280;49.864;8.638;2022-11-15T12:03:19;4.22;;;2.13;;
64033;SDS011;50280;49.864;8.638;2022-11-15T12:06:09;3.58;;;2.08;;
64033;SDS011;50280;49.864;8.638;2022-11-15T12:09:03;3.72;;;2.10;;
64033;SDS011;50280;49.864;8.638;2022-11-15T12:11:57;4.38;;;2.20;;
64033;SDS011;50280;49.864;8.638;2022-11-15T12:14:45;4.47;;;1.95;;
64033;SDS011;50280;49.864;8.638;2022-11-15T12:17:28;4.72;;;2.20;;
64033;SDS011;50280;49.864;8.638;2022-11-15T12:20:04;4.07;;;1.85;;
64033;SDS011;50280;49.864;8.638;2022-11-15T12:22:52;4.57;;;1.77;;
64033;SDS011;50280;49.864;8.638;2022-11-15T12:25:31;2.85;;;1.80;;
64033;SDS011;50280;49.864;8.638;2022-11-15T12:28:19;3.22;;;2.17;;
64033;SDS011;50280;49.864;8.638;2022-11-15T12:31:11;4.28;;;2.30;;
64033;SDS011;50280;49.864;8.638;2022-11-15T12:33:54;4.43;;;2.50;;
64033;SDS011;50280;49.864;8.638;2022-11-15T12:36:30;3.78;;;2.10;;
64033;SDS011;50280;49.864;8.638;2022-11-15T12:39:12;7.70;;;3.53;;
64033;SDS011;50280;49.864;8.638;2022-11-15T12:45:24;3.65;;;2.00;;
64033;SDS011;50280;49.864;8.638;2022-11-15T12:54:50;4.15;;;1.70;;
64033;SDS011;50280;49.864;8.638;2022-11-15T12:57:54;3.42;;;1.58;;
64033;SDS011;50280;49.864;8.638;2022-11-15T13:00:36;3.63;;;1.63;;
64033;SDS011;50280;49.864;8.638;2022-11-15T13:03:23;2.67;;;1.30;;
64033;SDS011;50280;49.864;8.638;2022-11-15T13:06:05;5.40;;;1.73;;
64033;SDS011;50280;49.864;8.638;2022-11-15T13:18:37;3.83;;;1.48;;
64033;SDS011;50280;49.864;8.638;2022-11-15T13:21:19;2.85;;;1.60;;
64033;SDS011;50280;49.864;8.638;2022-11-15T13:23:57;2.33;;;1.30;;
64033;SDS011;50280;49.864;8.638;2022-11-15T13:26:29;2.33;;;1.25;;
64033;SDS011;50280;49.864;8.638;2022-11-15T13:29:03;5.18;;;2.58;;
64033;SDS011;50280;49.864;8.638;2022-11-15T13:31:46;3.20;;;1.92;;
64033;SDS011;50280;49.864;8.638;2022-11-15T13:34:23;3.42;;;1.80;;
64033;SDS011;50280;49.864;8.638;2022-11-15T13:37:00;2.97;;;1.60;;
64033;SDS011;50280;49.864;8.638;2022-11-15T13:39:35;3.67;;;1.50;;
64033;SDS011;50280;49.864;8.638;2022-11-15T13:42:13;3.10;;;1.63;;
64033;SDS011;50280;49.864;8.638;2022-11-15T13:44:54;2.70;;;1.70;;
64033;SDS011;50280;49.864;8.638;2022-11-15T13:47:30;3.63;;;1.77;;
64033;SDS011;50280;49.864;8.638;2022-11-15T13:50:03;3.47;;;1.90;;
64033;SDS011;50280;49.864;8.638;2022-11-15T13:52:37;2.85;;;1.70;;
64033;SDS011;50280;49.864;8.638;2022-11-15T13:55:18;3.88;;;1.85;;
64033;SDS011;50280;49.864;8.638;2022-11-15T13:57:56;3.97;;;1.85;;
64033;SDS011;50280;49.864;8.638;2022-11-15T14:00:35;2.97;;;1.70;;
64033;SDS011;50280;49.864;8.638;2022-11-15T14:03:14;3.95;;;2.00;;
64033;SDS011;50280;49.864;8.638;2022-11-15T14:06:02;3.50;;;2.00;;
64033;SDS011;50280;49.864;8.638;2022-11-15T14:08:38;3.55;;;1.80;;
64033;SDS011;50280;49.864;8.638;2022-11-15T14:11:15;3.20;;;1.70;;
64033;SDS011;50280;49.864;8.638;2022-11-15T14:14:12;3.40;;;2.07;;
64033;SDS011;50280;49.864;8.638;2022-11-15T14:16:47;5.15;;;1.98;;
64033;SDS011;50280;49.864;8.638;2022-11-15T14:19:36;3.97;;;2.05;;
64033;SDS011;50280;49.864;8.638;2022-11-15T14:22:13;5.70;;;1.80;;
64033;SDS011;50280;49.864;8.638;2022-11-15T14:25:07;5.10;;;2.10;;
64033;SDS011;50280;49.864;8.638;2022-11-15T14:31:01;4.78;;;2.10;;
64033;SDS011;50280;49.864;8.638;2022-11-15T14:33:43;3.97;;;1.83;;
64033;SDS011;50280;49.864;8.638;2022-11-15T14:36:16;3.05;;;2.00;;
64033;SDS011;50280;49.864;8.638;2022-11-15T14:38:52;6.00;;;2.40;;
64033;SDS011;50280;49.864;8.638;2022-11-15T14:41:25;6.78;;;2.88;;
64033;SDS011;50280;49.864;8.638;2022-11-15T14:43:59;4.07;;;2.30;;
64033;SDS011;50280;49.864;8.638;2022-11-15T14:46:31;3.67;;;1.98;;
64033;SDS011;50280;49.864;8.638;2022-11-15T14:49:04;4.72;;;2.30;;
64033;SDS011;50280;49.864;8.638;2022-11-15T14:51:36;6.85;;;3.50;;
64033;SDS011;50280;49.864;8.638;2022-11-15T14:54:09;7.95;;;4.43;;
64033;SDS011;50280;49.864;8.638;2022-11-15T14:56:42;6.57;;;3.67;;
64033;SDS011;50280;49.864;8.638;2022-11-15T14:59:16;8.40;;;4.28;;
64033;SDS011;50280;49.864;8.638;2022-11-15T15:01:48;7.65;;;4.38;;
64033;SDS011;50280;49.864;8.638;2022-11-15T15:04:20;11.70;;;6.53;;
64033;SDS011;50280;49.864;8.638;2022-11-15T15:06:53;7.82;;;4.32;;
64033;SDS011;50280;49.864;8.638;2022-11-15T15:09:25;6.10;;;3.35;;
64033;SDS011;50280;49.864;8.638;2022-11-15T15:11:57;4.78;;;2.85;;
64033;SDS011;50280;49.864;8.638;2022-11-15T15:14:31;4.80;;;2.30;;
64033;SDS011;50280;49.864;8.638;2022-11-15T15:17:04;5.53;;;2.72;;
64033;SDS011;50280;49.864;8.638;2022-11-15T15:19:36;5.55;;;2.67;;
64033;SDS011;50280;49.864;8.638;2022-11-15T15:22:10;3.90;;;2.25;;
64033;SDS011;50280;49.864;8.638;2022-11-15T15:24:48;4.95;;;1.70;;
64033;SDS011;50280;49.864;8.638;2022-11-15T15:27:20;6.00;;;2.22;;
64033;SDS011;50280;49.864;8.638;2022-11-15T15:29:54;5.13;;;2.50;;
64033;SDS011;50280;49.864;8.638;2022-11-15T15:32:27;5.43;;;3.60;;
64033;SDS011;50280;49.864;8.638;2022-11-15T15:34:59;3.53;;;1.80;;
64033;SDS011;50280;49.864;8.638;2022-11-15T15:37:32;3.25;;;1.60;;
64033;SDS011;50280;49.864;8.638;2022-11-15T15:40:08;3.90;;;1.40;;
64033;SDS011;50280;49.864;8.638;2022-11-15T15:42:47;5.20;;;2.05;;
64033;SDS011;50280;49.864;8.638;2022-11-15T15:45:22;3.17;;;2.00;;
64033;SDS011;50280;49.864;8.638;2022-11-15T15:47:56;4.22;;;2.25;;
64033;SDS011;50280;49.864;8.638;2022-11-15T15:50:29;4.75;;;2.30;;
64033;SDS011;50280;49.864;8.638;2022-11-15T15:53:06;3.97;;;1.75;;
64033;SDS011;50280;49.864;8.638;2022-11-15T15:55:39;2.75;;;1.50;;
64033;SDS011;50280;49.864;8.638;2022-11-15T15:58:12;3.60;;;1.75;;
64033;SDS011;50280;49.864;8.638;2022-11-15T16:00:45;3.75;;;1.73;;
64033;SDS011;50280;49.864;8.638;2022-11-15T16:03:18;3.53;;;2.00;;
64033;SDS011;50280;49.864;8.638;2022-11-15T16:05:50;4.97;;;1.80;;
64033;SDS011;50280;49.864;8.638;2022-11-15T16:08:23;3.72;;;1.65;;
64033;SDS011;50280;49.864;8.638;2022-11-15T16:10:57;3.65;;;2.10;;
64033;SDS011;50280;49.864;8.638;2022-11-15T16:13:29;3.33;;;2.08;;
64033;SDS011;50280;49.864;8.638;2022-11-15T16:16:04;5.63;;;2.05;;
64033;SDS011;50280;49.864;8.638;2022-11-15T16:18:45;3.78;;;2.00;;